LFOE 231430Z AUTO 03005KT 350V060 CAVOK 15/04 Q1032

ElémentsDécodage
LFOE Station météo située sur l'aérodrome de EVREUX Fauville
231430Z émis le 23 du mois à 14h30 UTC
AUTO Bulletin édité par un automate
03005KT vent du 030°, 05 noeuds
350V060 vent de direction variable entre 350° et 060°
CAVOK Ceiling And Visibility OK
- Visibilité de 10 Km ou plus
- Pas de nuage au-dessous de 1500m ou au-dessous de l'altitude minimale du secteur la plus élevée (si>1500m) et absence de CB
- pas de temps présent significatif
15/04 température 15°C, point de rosée 04°C
 soit une humidité relative de 48%
Q1032 la pression au niveau de la mer (QNH) est de 1032 hPa